Time;durP1;ratioP1;P1;durP2;ratioP2;P2;SDS_P1;SDS_P2;PMS_P1;PMS_P2;Temp;Humidity;BMP_temperature;BMP_pressure;BME280_temperature;BME280_humidity;BME280_pressure;Samples;Min_cycle;Max_cycle;Signal;HPM_P1;HPM_P2
2024/01/04 00:03:56;;;;;;;3.42;1.12;;;7.60;99.90;;;;;;7365222;32;20257;-55
2024/01/04 00:07:58;;;;;;;6.22;1.40;;;7.70;99.90;;;;;;7361180;32;20095;-57
2024/01/04 00:12:00;;;;;;;5.80;1.48;;;7.70;99.90;;;;;;7357561;32;20154;-57
2024/01/04 00:16:02;;;;;;;4.78;1.60;;;7.70;99.90;;;;;;7363533;32;20175;-57
2024/01/04 00:20:04;;;;;;;7.65;1.90;;;7.80;99.90;;;;;;7355040;32;20659;-57
2024/01/04 00:24:06;;;;;;;7.80;1.90;;;7.80;99.90;;;;;;7364660;32;20111;-56
2024/01/04 00:28:08;;;;;;;8.02;2.17;;;7.80;99.90;;;;;;7355802;32;20468;-56
2024/01/04 00:32:10;;;;;;;4.50;2.20;;;7.80;99.90;;;;;;7353918;32;20600;-57
2024/01/04 00:36:13;;;;;;;9.77;2.22;;;7.80;99.90;;;;;;7357539;32;20226;-57
2024/01/04 00:40:15;;;;;;;7.72;2.10;;;7.80;99.90;;;;;;7360770;32;20520;-56
2024/01/04 00:44:17;;;;;;;7.85;2.20;;;7.80;99.90;;;;;;7370233;32;20191;-56
2024/01/04 00:48:19;;;;;;;5.05;2.33;;;7.80;99.90;;;;;;7360383;32;20111;-56
2024/01/04 00:52:21;;;;;;;9.00;2.60;;;7.90;99.90;;;;;;7364538;32;20199;-55
2024/01/04 00:56:22;;;;;;;6.65;2.33;;;7.90;99.90;;;;;;7365144;32;20265;-56
2024/01/04 01:00:24;;;;;;;8.82;2.33;;;7.90;99.90;;;;;;7364057;32;20130;-54
2024/01/04 01:04:26;;;;;;;8.95;2.08;;;7.90;99.90;;;;;;7359611;32;20103;-55
2024/01/04 01:08:28;;;;;;;5.22;2.45;;;7.90;99.90;;;;;;7360440;32;20190;-55
2024/01/04 01:12:30;;;;;;;14.70;3.05;;;7.90;99.90;;;;;;7364812;32;20130;-56
2024/01/04 01:16:31;;;;;;;10.25;3.03;;;7.90;99.90;;;;;;7363291;32;20122;-55
2024/01/04 01:20:33;;;;;;;9.73;3.20;;;7.90;99.90;;;;;;7361413;32;20714;-55
2024/01/04 01:24:35;;;;;;;8.75;3.17;;;7.90;99.90;;;;;;7366145;32;20099;-55
2024/01/04 01:28:36;;;;;;;8.38;3.70;;;8.00;99.90;;;;;;7359274;32;20131;-55
2024/01/04 01:32:40;;;;;;;10.48;4.07;;;8.00;99.90;;;;;;7362763;32;20163;-55
2024/01/04 01:36:42;;;;;;;6.75;3.20;;;8.00;99.90;;;;;;7360445;32;20119;-56
2024/01/04 01:40:44;;;;;;;9.52;3.90;;;8.00;99.90;;;;;;7360089;32;20114;-55
2024/01/04 01:44:46;;;;;;;8.20;4.15;;;8.00;99.90;;;;;;7357186;32;20132;-55
2024/01/04 01:48:48;;;;;;;7.35;3.95;;;8.00;99.90;;;;;;7363200;32;20229;-55
2024/01/04 01:52:52;;;;;;;8.32;4.05;;;8.10;99.90;;;;;;7362318;32;20099;-56
2024/01/04 01:56:55;;;;;;;8.35;3.95;;;8.00;99.90;;;;;;7350475;32;20455;-55
2024/01/04 02:00:57;;;;;;;7.50;3.90;;;8.00;99.90;;;;;;7363756;32;20144;-56
2024/01/04 02:04:59;;;;;;;9.75;3.72;;;7.90;99.90;;;;;;7359275;32;20099;-55
2024/01/04 02:09:01;;;;;;;8.45;3.90;;;7.90;99.90;;;;;;7361757;32;20162;-56
2024/01/04 02:13:03;;;;;;;7.70;4.82;;;7.90;99.90;;;;;;7353982;32;20190;-56
2024/01/04 02:17:06;;;;;;;9.18;4.80;;;7.90;99.90;;;;;;7349294;32;20096;-55
2024/01/04 02:21:09;;;;;;;8.98;5.03;;;7.90;99.90;;;;;;7359802;32;20115;-55
2024/01/04 02:25:11;;;;;;;7.78;3.92;;;7.90;99.90;;;;;;7360502;32;20103;-55
2024/01/04 02:29:13;;;;;;;5.07;2.95;;;7.80;99.90;;;;;;7359492;32;20233;-54
2024/01/04 02:33:15;;;;;;;7.03;3.10;;;7.80;99.90;;;;;;7362673;32;20230;-56
2024/01/04 02:37:17;;;;;;;4.00;1.90;;;7.70;99.90;;;;;;7360235;32;20554;-57
2024/01/04 02:41:18;;;;;;;6.47;2.60;;;7.60;99.90;;;;;;7356877;32;20493;-55
2024/01/04 02:45:20;;;;;;;6.37;2.30;;;7.70;99.90;;;;;;7357872;32;20497;-55
2024/01/04 02:49:22;;;;;;;6.57;2.67;;;7.60;99.90;;;;;;7364680;32;20521;-56
2024/01/04 02:53:24;;;;;;;5.22;2.17;;;7.70;99.90;;;;;;7361442;32;20273;-55
2024/01/04 02:57:26;;;;;;;4.00;2.05;;;7.60;99.90;;;;;;7357478;32;20382;-55
2024/01/04 03:01:28;;;;;;;7.07;1.90;;;7.50;99.90;;;;;;7372011;32;20471;-55
2024/01/04 03:05:29;;;;;;;8.55;2.25;;;7.50;99.90;;;;;;7354812;32;20107;-55
2024/01/04 03:09:31;;;;;;;4.97;1.70;;;7.50;99.90;;;;;;7365983;32;20146;-55
2024/01/04 03:13:33;;;;;;;6.60;1.60;;;7.50;99.90;;;;;;7358121;32;20098;-55
2024/01/04 03:17:35;;;;;;;5.30;1.50;;;7.50;99.90;;;;;;7360159;32;20583;-55
2024/01/04 03:21:36;;;;;;;3.25;1.35;;;7.50;99.90;;;;;;7356919;32;20261;-56
2024/01/04 03:25:38;;;;;;;8.07;1.52;;;7.40;99.90;;;;;;7357524;32;20134;-55
2024/01/04 03:29:40;;;;;;;6.70;1.50;;;7.40;99.90;;;;;;7357414;32;20099;-55
2024/01/04 03:33:42;;;;;;;5.47;1.80;;;7.40;99.90;;;;;;7359447;32;20788;-56
2024/01/04 03:37:44;;;;;;;5.93;2.28;;;7.50;99.90;;;;;;7355375;32;20560;-56
2024/01/04 03:41:45;;;;;;;5.65;2.20;;;7.50;99.90;;;;;;7354738;32;20110;-55
2024/01/04 03:45:47;;;;;;;6.57;2.00;;;7.50;99.90;;;;;;7363494;32;20159;-55
2024/01/04 03:49:49;;;;;;;7.82;2.62;;;7.60;99.90;;;;;;7341268;32;20100;-55
2024/01/04 03:53:51;;;;;;;7.35;3.00;;;7.50;99.90;;;;;;7356660;32;20457;-56
2024/01/04 03:57:53;;;;;;;9.00;3.45;;;7.60;99.90;;;;;;7360091;32;20388;-56
2024/01/04 04:01:55;;;;;;;7.15;3.60;;;7.60;99.90;;;;;;7358557;32;20187;-55
2024/01/04 04:05:56;;;;;;;9.35;4.65;;;7.70;99.90;;;;;;7350970;32;20148;-55
2024/01/04 04:09:59;;;;;;;10.43;4.85;;;7.70;99.90;;;;;;7353649;32;20736;-55
2024/01/04 04:14:01;;;;;;;11.10;4.28;;;7.70;99.90;;;;;;7354111;32;20115;-56
2024/01/04 04:18:03;;;;;;;8.65;4.62;;;7.80;99.90;;;;;;7364229;32;20667;-55
2024/01/04 04:22:05;;;;;;;7.22;3.70;;;7.80;99.90;;;;;;7360358;32;20118;-55
2024/01/04 04:26:07;;;;;;;10.80;3.50;;;7.80;99.90;;;;;;7363503;32;20121;-55
2024/01/04 04:30:09;;;;;;;9.50;3.87;;;7.80;99.90;;;;;;7364401;32;20141;-56
2024/01/04 04:34:11;;;;;;;11.70;3.37;;;7.90;99.90;;;;;;7357599;32;20558;-56
2024/01/04 04:38:14;;;;;;;9.45;3.50;;;7.90;99.90;;;;;;7364895;32;20564;-55
2024/01/04 04:42:16;;;;;;;7.70;2.60;;;7.80;99.90;;;;;;7359671;32;20111;-55
2024/01/04 04:46:18;;;;;;;10.15;2.30;;;7.80;99.90;;;;;;7361180;32;20119;-55
2024/01/04 04:50:20;;;;;;;8.80;2.25;;;7.70;99.90;;;;;;7351054;32;20591;-55
2024/01/04 04:54:22;;;;;;;7.40;1.95;;;7.60;99.90;;;;;;7359817;32;20121;-55
2024/01/04 04:58:24;;;;;;;7.22;2.00;;;7.60;99.90;;;;;;7359712;32;20305;-55
2024/01/04 05:02:25;;;;;;;8.50;2.17;;;7.60;99.90;;;;;;7349330;32;20445;-55
2024/01/04 05:06:27;;;;;;;10.20;2.47;;;7.70;99.90;;;;;;7361315;32;20111;-55
2024/01/04 05:10:29;;;;;;;8.55;2.80;;;7.70;99.90;;;;;;7357588;32;20319;-56
2024/01/04 05:14:31;;;;;;;7.20;3.00;;;7.70;99.90;;;;;;7348185;32;20497;-55
2024/01/04 05:18:33;;;;;;;7.72;3.10;;;7.60;99.90;;;;;;7363190;32;20457;-55
2024/01/04 05:22:35;;;;;;;5.30;3.30;;;7.60;99.90;;;;;;7359485;32;20129;-55
2024/01/04 05:26:37;;;;;;;11.57;3.60;;;7.60;99.90;;;;;;7360408;32;20123;-55
2024/01/04 05:30:38;;;;;;;10.05;3.92;;;7.70;99.90;;;;;;7360881;32;20119;-55
2024/01/04 05:34:43;;;;;;;10.77;3.92;;;7.60;99.90;;;;;;7362149;32;20168;-55
2024/01/04 05:38:45;;;;;;;10.75;4.85;;;7.70;99.90;;;;;;7354159;32;20110;-56
2024/01/04 05:42:48;;;;;;;10.85;4.60;;;7.70;99.90;;;;;;7367498;32;20114;-55
2024/01/04 05:46:50;;;;;;;7.80;3.92;;;7.70;99.90;;;;;;7347781;32;20142;-55
2024/01/04 05:50:51;;;;;;;9.18;4.90;;;7.80;99.90;;;;;;7362337;32;20165;-56
2024/01/04 05:54:53;;;;;;;8.45;4.65;;;7.80;99.90;;;;;;7361894;32;20115;-55
2024/01/04 05:58:55;;;;;;;9.18;5.25;;;7.80;99.90;;;;;;7367556;32;20107;-55
2024/01/04 06:02:57;;;;;;;10.07;4.68;;;7.90;99.90;;;;;;7365806;32;20671;-55
2024/01/04 06:06:59;;;;;;;12.70;5.18;;;7.90;99.90;;;;;;7366825;32;20133;-55
2024/01/04 06:11:04;;;;;;;13.02;4.90;;;7.90;99.90;;;;;;7366454;32;20186;-55
2024/01/04 06:15:06;;;;;;;11.38;4.72;;;7.90;99.90;;;;;;7361321;32;20221;-55
2024/01/04 06:19:08;;;;;;;11.65;4.43;;;7.90;99.90;;;;;;7369821;32;20123;-55
2024/01/04 06:23:10;;;;;;;7.93;3.67;;;7.90;99.90;;;;;;7357676;32;20166;-56
2024/01/04 06:27:12;;;;;;;7.40;3.80;;;7.90;99.90;;;;;;7359427;32;20213;-56
2024/01/04 06:31:14;;;;;;;5.65;2.97;;;7.90;99.90;;;;;;7362798;32;20198;-55
2024/01/04 06:35:15;;;;;;;4.82;3.15;;;7.90;99.90;;;;;;7365669;32;20099;-55
2024/01/04 06:39:17;;;;;;;6.28;2.70;;;7.80;99.90;;;;;;7364854;32;20310;-55
2024/01/04 06:43:19;;;;;;;4.20;2.53;;;7.80;99.90;;;;;;7367224;32;20156;-56
2024/01/04 06:47:21;;;;;;;4.03;2.35;;;7.80;99.90;;;;;;7358986;32;20801;-57
2024/01/04 06:51:23;;;;;;;5.40;2.22;;;7.70;99.90;;;;;;7360675;32;20571;-55
2024/01/04 06:55:25;;;;;;;5.30;2.40;;;7.70;99.90;;;;;;7358346;32;20742;-56
2024/01/04 06:59:27;;;;;;;2.90;2.17;;;7.70;99.90;;;;;;7365145;32;20099;-56
2024/01/04 07:03:30;;;;;;;6.15;2.55;;;7.70;99.90;;;;;;7362851;32;20159;-55
2024/01/04 07:07:33;;;;;;;3.92;2.12;;;7.60;99.90;;;;;;7363977;32;20129;-57
2024/01/04 07:11:35;;;;;;;5.10;2.35;;;7.70;99.90;;;;;;7363159;32;20767;-55
2024/01/04 07:15:37;;;;;;;4.50;2.00;;;7.60;99.90;;;;;;7364934;32;20162;-55
2024/01/04 07:19:41;;;;;;;3.60;1.70;;;7.60;99.90;;;;;;7362134;32;20371;-55
2024/01/04 07:23:43;;;;;;;4.60;2.20;;;7.60;99.90;;;;;;7366443;32;20236;-55
2024/01/04 07:27:45;;;;;;;3.70;1.80;;;7.60;99.90;;;;;;7363965;32;20194;-56
2024/01/04 07:31:50;;;;;;;3.75;1.73;;;7.60;99.90;;;;;;7365608;32;20119;-56
2024/01/04 07:35:52;;;;;;;2.72;1.58;;;7.60;99.90;;;;;;7361090;32;20645;-56
2024/01/04 07:39:54;;;;;;;3.33;1.40;;;7.60;99.90;;;;;;7366913;32;20431;-57
2024/01/04 07:43:57;;;;;;;4.60;1.60;;;7.60;99.90;;;;;;7364762;32;20673;-57
2024/01/04 07:47:58;;;;;;;3.17;1.40;;;7.60;99.90;;;;;;7354580;32;20278;-57
2024/01/04 07:52:01;;;;;;;2.70;1.60;;;7.60;99.90;;;;;;7353136;32;20582;-57
2024/01/04 07:56:03;;;;;;;3.15;1.80;;;7.60;99.90;;;;;;7364072;32;20188;-58
2024/01/04 08:00:05;;;;;;;3.28;1.60;;;7.60;99.90;;;;;;7354213;32;20139;-57
2024/01/04 08:04:07;;;;;;;6.18;1.98;;;7.60;99.90;;;;;;7362034;32;20174;-57
2024/01/04 08:08:09;;;;;;;3.67;2.30;;;7.60;99.90;;;;;;7353029;32;20716;-57
2024/01/04 08:12:12;;;;;;;4.70;2.20;;;7.60;99.90;;;;;;7358488;32;20111;-58
2024/01/04 08:16:14;;;;;;;4.75;2.15;;;7.60;99.90;;;;;;7357293;32;20206;-57
2024/01/04 08:20:18;;;;;;;3.83;2.28;;;7.60;99.90;;;;;;7362569;32;20278;-57
2024/01/04 08:24:20;;;;;;;3.65;2.28;;;7.60;99.90;;;;;;7358475;32;20155;-57
2024/01/04 08:28:22;;;;;;;3.17;2.37;;;7.60;99.90;;;;;;7368606;32;20131;-59
2024/01/04 08:32:23;;;;;;;4.12;2.33;;;7.60;99.90;;;;;;7359366;32;20293;-57
2024/01/04 08:36:25;;;;;;;6.28;2.58;;;7.60;99.90;;;;;;7360057;32;20226;-57
2024/01/04 08:40:28;;;;;;;8.27;2.35;;;7.70;99.90;;;;;;7363969;32;20152;-56
2024/01/04 08:44:30;;;;;;;8.30;2.78;;;7.80;99.90;;;;;;7359762;32;20126;-55
2024/01/04 08:48:32;;;;;;;7.50;3.20;;;7.80;99.90;;;;;;7359718;32;20437;-56
2024/01/04 08:52:34;;;;;;;6.95;3.70;;;7.80;99.90;;;;;;7361281;32;20190;-56
2024/01/04 08:56:36;;;;;;;5.72;3.70;;;7.80;99.90;;;;;;7361562;32;20137;-56
2024/01/04 09:00:38;;;;;;;8.50;4.05;;;7.90;99.90;;;;;;7365685;32;20478;-55
2024/01/04 09:04:40;;;;;;;7.35;4.43;;;7.90;99.90;;;;;;7366112;32;20345;-61
2024/01/04 09:08:42;;;;;;;7.93;3.45;;;8.00;99.90;;;;;;7367922;32;20225;-56
2024/01/04 09:12:43;;;;;;;7.78;3.67;;;8.00;99.90;;;;;;7361826;32;20274;-55
2024/01/04 09:16:48;;;;;;;7.25;3.37;;;8.00;99.90;;;;;;7364338;32;20524;-57
2024/01/04 09:20:50;;;;;;;7.07;4.10;;;8.00;99.90;;;;;;7360147;32;20119;-56
2024/01/04 09:24:52;;;;;;;6.43;3.92;;;8.00;99.90;;;;;;7364224;32;20209;-57
2024/01/04 09:28:53;;;;;;;5.80;3.60;;;8.10;99.90;;;;;;7366064;32;20107;-57
2024/01/04 09:32:55;;;;;;;11.48;3.72;;;8.20;99.90;;;;;;7365918;32;20713;-57
2024/01/04 09:36:57;;;;;;;6.93;3.72;;;8.20;99.90;;;;;;7365531;32;20099;-57
2024/01/04 09:41:14;;;;;;;6.15;2.97;;;8.30;99.90;;;;;;7353249;32;20181;-57
2024/01/04 09:45:19;;;;;;;7.25;3.03;;;8.40;99.90;;;;;;7359519;32;20805;-57
2024/01/04 09:49:21;;;;;;;10.55;2.67;;;8.40;99.90;;;;;;7359641;32;20173;-58
2024/01/04 09:53:26;;;;;;;7.28;2.35;;;8.40;99.90;;;;;;7362567;32;21066;-57
2024/01/04 09:57:28;;;;;;;5.53;2.37;;;8.40;99.90;;;;;;7358179;32;20318;-57
2024/01/04 10:01:35;;;;;;;5.10;2.47;;;8.50;99.90;;;;;;7366519;32;20241;-57
2024/01/04 10:05:38;;;;;;;6.35;2.10;;;8.60;99.90;;;;;;7359498;32;20119;-65
2024/01/04 10:09:53;;;;;;;6.07;1.77;;;8.80;99.90;;;;;;7356190;32;20153;-64
2024/01/04 10:13:55;;;;;;;8.13;1.52;;;8.90;99.90;;;;;;7365522;32;20839;-63
2024/01/04 10:17:58;;;;;;;4.82;1.60;;;9.00;99.90;;;;;;7361287;32;20207;-64
2024/01/04 10:22:08;;;;;;;4.15;1.27;;;8.90;99.90;;;;;;7358291;32;20130;-64
2024/01/04 10:26:17;;;;;;;2.42;1.10;;;8.90;99.90;;;;;;7359005;32;20248;-56
2024/01/04 10:30:19;;;;;;;4.43;1.10;;;8.80;99.90;;;;;;7355877;32;20133;-57
2024/01/04 10:34:22;;;;;;;2.53;1.20;;;8.60;99.90;;;;;;7361695;32;20217;-57
2024/01/04 10:38:25;;;;;;;5.28;1.35;;;8.50;99.90;;;;;;7358796;32;20278;-57
2024/01/04 10:42:33;;;;;;;5.72;1.40;;;8.50;99.90;;;;;;7362555;32;20099;-57
2024/01/04 10:46:36;;;;;;;2.72;1.42;;;8.50;99.90;;;;;;7359469;32;20107;-56
2024/01/04 10:50:39;;;;;;;3.25;1.83;;;8.40;99.90;;;;;;7360707;32;20103;-57
2024/01/04 10:54:41;;;;;;;5.45;2.22;;;8.40;99.90;;;;;;7358635;32;20122;-57
2024/01/04 10:58:48;;;;;;;7.72;2.50;;;8.40;99.90;;;;;;7365507;32;20546;-57
2024/01/04 11:02:51;;;;;;;8.27;2.25;;;8.40;99.90;;;;;;7360014;32;20114;-58
2024/01/04 11:06:53;;;;;;;3.67;2.20;;;8.30;99.90;;;;;;7353564;32;20112;-59
2024/01/04 11:10:57;;;;;;;5.78;2.45;;;8.30;99.90;;;;;;7360999;32;20177;-58
2024/01/04 11:14:59;;;;;;;3.70;2.45;;;8.20;99.90;;;;;;7359418;32;20099;-57
2024/01/04 11:19:14;;;;;;;3.37;2.85;;;8.20;99.90;;;;;;7354328;32;20096;-57
2024/01/04 11:23:55;;;;;;;4.53;3.10;;;8.20;99.90;;;;;;7353306;32;20178;-57
2024/01/04 11:27:58;;;;;;;7.07;3.15;;;8.30;99.90;;;;;;7245612;32;20144;-57
2024/01/04 11:32:02;;;;;;;6.12;3.22;;;8.30;99.90;;;;;;7308548;32;20218;-57
2024/01/04 11:36:04;;;;;;;4.70;2.97;;;8.30;99.90;;;;;;7350896;32;20467;-58
2024/01/04 11:40:07;;;;;;;6.22;3.67;;;8.30;99.90;;;;;;7355488;32;20195;-58
2024/01/04 11:44:18;;;;;;;4.00;2.70;;;8.30;99.90;;;;;;7359530;32;20126;-57
2024/01/04 11:48:20;;;;;;;5.90;3.60;;;8.30;99.90;;;;;;7356848;32;20652;-57
2024/01/04 11:52:22;;;;;;;4.15;2.85;;;8.40;99.90;;;;;;7360603;32;20201;-57
2024/01/04 11:56:25;;;;;;;4.10;2.92;;;8.30;99.90;;;;;;7362033;32;20179;-57
2024/01/04 12:00:32;;;;;;;6.47;3.50;;;8.20;99.90;;;;;;7361845;32;20111;-57
2024/01/04 12:04:35;;;;;;;4.95;3.35;;;8.30;99.90;;;;;;7360477;32;20152;-55
2024/01/04 12:08:37;;;;;;;7.12;3.08;;;8.30;99.90;;;;;;7356097;32;20187;-57
2024/01/04 12:12:42;;;;;;;4.10;3.00;;;8.30;99.90;;;;;;7361966;32;20142;-56
2024/01/04 12:16:44;;;;;;;3.40;2.33;;;8.50;99.90;;;;;;7359875;32;20314;-57
2024/01/04 12:20:45;;;;;;;7.93;2.90;;;8.50;99.90;;;;;;7356594;32;20757;-57
2024/01/04 12:24:48;;;;;;;8.30;2.80;;;8.50;99.90;;;;;;7359731;32;20135;-56
2024/01/04 12:28:53;;;;;;;8.13;3.25;;;8.60;99.90;;;;;;7362002;32;20636;-54
2024/01/04 12:33:00;;;;;;;6.40;3.42;;;8.70;99.90;;;;;;7356250;32;20130;-57
2024/01/04 12:37:06;;;;;;;4.97;3.00;;;8.60;99.90;;;;;;7353916;32;20249;-58
2024/01/04 12:41:08;;;;;;;10.33;3.20;;;8.60;99.90;;;;;;7360788;32;20130;-57
2024/01/04 12:45:10;;;;;;;3.87;2.55;;;8.50;99.90;;;;;;7364854;32;20126;-57
2024/01/04 12:49:14;;;;;;;5.20;2.28;;;8.40;99.90;;;;;;7361999;32;20099;-56
2024/01/04 12:53:21;;;;;;;4.40;1.95;;;8.30;99.90;;;;;;7366832;32;20149;-57
2024/01/04 12:57:22;;;;;;;3.42;1.50;;;8.30;99.90;;;;;;7361579;32;20476;-57
2024/01/04 13:01:24;;;;;;;3.78;1.50;;;8.30;99.90;;;;;;7357078;32;20115;-56
2024/01/04 13:05:26;;;;;;;3.40;1.60;;;8.20;99.90;;;;;;7358673;32;20194;-57
2024/01/04 13:09:27;;;;;;;3.42;1.37;;;8.10;99.90;;;;;;7360830;32;20254;-57
2024/01/04 13:13:29;;;;;;;3.72;1.55;;;8.10;99.90;;;;;;7368108;32;20218;-57
2024/01/04 13:17:35;;;;;;;6.80;1.75;;;8.10;99.90;;;;;;7365809;32;20190;-57
2024/01/04 13:21:36;;;;;;;2.62;1.48;;;8.10;99.90;;;;;;7358946;32;20321;-57
2024/01/04 13:25:39;;;;;;;5.35;1.87;;;8.00;99.90;;;;;;7360369;32;20322;-61
2024/01/04 13:29:41;;;;;;;8.68;2.28;;;8.00;99.90;;;;;;7367520;32;20163;-57
2024/01/04 13:33:42;;;;;;;10.70;2.37;;;8.10;99.90;;;;;;7360264;32;20102;-57
2024/01/04 13:37:44;;;;;;;4.95;2.00;;;8.10;99.90;;;;;;7365893;32;20218;-57
2024/01/04 13:41:47;;;;;;;5.78;2.08;;;8.10;99.90;;;;;;7365045;32;20398;-56
2024/01/04 13:45:52;;;;;;;9.90;2.85;;;8.00;99.90;;;;;;7364171;32;20103;-56
2024/01/04 13:49:55;;;;;;;10.00;3.05;;;7.90;99.90;;;;;;7364498;32;20153;-58
2024/01/04 13:53:57;;;;;;;8.30;3.12;;;8.00;99.90;;;;;;7365701;32;20576;-57
2024/01/04 13:57:59;;;;;;;9.02;3.05;;;8.00;99.90;;;;;;7364354;32;20529;-57
2024/01/04 14:02:01;;;;;;;10.63;3.47;;;8.00;99.90;;;;;;7359845;32;20502;-56
2024/01/04 14:06:03;;;;;;;9.85;3.08;;;8.00;99.90;;;;;;7362167;32;20135;-56
2024/01/04 14:10:07;;;;;;;7.40;2.85;;;8.10;99.90;;;;;;7364410;32;20527;-55
2024/01/04 14:14:11;;;;;;;9.27;2.67;;;8.20;99.90;;;;;;7363989;32;20107;-56
2024/01/04 14:18:13;;;;;;;9.05;2.95;;;8.20;99.90;;;;;;7362979;32;20589;-56
2024/01/04 14:22:14;;;;;;;8.10;3.75;;;8.20;99.90;;;;;;7360919;32;20158;-56
2024/01/04 14:26:16;;;;;;;9.48;2.60;;;8.20;99.90;;;;;;7358096;32;20112;-57
2024/01/04 14:30:18;;;;;;;10.05;2.90;;;8.20;99.90;;;;;;7360047;32;20271;-57
2024/01/04 14:34:20;;;;;;;7.97;2.17;;;8.30;99.90;;;;;;7362380;32;20146;-57
2024/01/04 14:38:22;;;;;;;12.60;3.25;;;8.50;99.90;;;;;;7356052;32;20190;-56
2024/01/04 14:42:24;;;;;;;15.77;3.10;;;8.50;99.90;;;;;;7358405;32;20180;-55
2024/01/04 14:46:40;;;;;;;13.13;2.67;;;8.50;99.90;;;;;;7365427;32;20252;-57
2024/01/04 14:50:42;;;;;;;14.43;3.08;;;8.50;99.90;;;;;;7357177;32;20322;-56
2024/01/04 14:54:43;;;;;;;9.50;2.70;;;8.40;99.90;;;;;;7359664;32;20107;-56
2024/01/04 14:58:46;;;;;;;13.25;2.12;;;8.30;99.90;;;;;;7361017;32;20431;-56
2024/01/04 15:02:48;;;;;;;13.95;1.95;;;8.20;99.90;;;;;;7357491;32;20749;-56
2024/01/04 15:06:50;;;;;;;9.10;2.25;;;8.10;99.90;;;;;;7364717;32;20580;-56
2024/01/04 15:10:52;;;;;;;9.18;1.87;;;8.00;99.90;;;;;;7360644;32;20230;-56
2024/01/04 15:14:54;;;;;;;16.42;2.35;;;8.00;99.90;;;;;;7362508;32;23019;-57
2024/01/04 15:18:56;;;;;;;12.60;2.33;;;7.90;99.90;;;;;;7370044;32;20214;-55
2024/01/04 15:22:58;;;;;;;11.77;2.42;;;7.90;99.90;;;;;;7355009;32;20178;-57
2024/01/04 15:26:59;;;;;;;11.73;2.00;;;7.90;99.90;;;;;;7361067;32;20490;-57
2024/01/04 15:31:03;;;;;;;9.80;1.75;;;7.80;99.90;;;;;;7365595;32;20106;-57
2024/01/04 15:35:05;;;;;;;17.40;1.98;;;7.70;99.90;;;;;;7357153;32;20118;-57
2024/01/04 15:39:08;;;;;;;15.30;1.85;;;7.60;99.90;;;;;;7355289;32;20103;-58
2024/01/04 15:43:10;;;;;;;13.55;2.17;;;7.40;99.90;;;;;;7355759;32;20125;-57
2024/01/04 15:47:12;;;;;;;11.10;2.30;;;7.40;99.90;;;;;;7368640;32;20403;-57
2024/01/04 15:51:14;;;;;;;12.63;2.10;;;7.40;99.90;;;;;;7354674;32;20571;-57
2024/01/04 15:55:16;;;;;;;10.25;2.42;;;7.30;99.90;;;;;;7348671;32;20146;-55
2024/01/04 15:59:17;;;;;;;15.02;2.15;;;7.20;99.90;;;;;;7357787;32;20202;-56
2024/01/04 16:03:19;;;;;;;13.02;2.30;;;7.20;99.90;;;;;;7349787;32;20138;-56
2024/01/04 16:07:21;;;;;;;7.60;1.73;;;7.10;99.90;;;;;;7358803;32;20138;-59
2024/01/04 16:11:23;;;;;;;12.37;2.20;;;7.00;99.90;;;;;;7355419;32;20139;-59
2024/01/04 16:15:25;;;;;;;12.48;2.30;;;6.90;99.90;;;;;;7365123;32;20111;-56
2024/01/04 16:19:28;;;;;;;11.35;1.98;;;6.80;99.90;;;;;;7353710;32;20216;-57
2024/01/04 16:23:30;;;;;;;8.95;1.92;;;6.70;99.90;;;;;;7366622;32;20130;-58
2024/01/04 16:27:32;;;;;;;12.40;2.20;;;6.60;99.90;;;;;;7363000;32;20213;-58
2024/01/04 16:31:36;;;;;;;10.05;2.28;;;6.60;99.90;;;;;;7356795;32;20096;-57
2024/01/04 16:35:38;;;;;;;14.52;2.05;;;6.40;99.90;;;;;;7361194;32;20261;-57
2024/01/04 16:39:40;;;;;;;12.45;2.08;;;6.30;99.90;;;;;;7368258;32;20561;-57
2024/01/04 16:43:42;;;;;;;13.62;2.12;;;6.20;99.90;;;;;;7365774;32;20111;-57
2024/01/04 16:47:44;;;;;;;8.63;2.05;;;6.10;99.90;;;;;;7370028;32;20135;-56
2024/01/04 16:51:47;;;;;;;8.98;2.47;;;6.00;99.90;;;;;;7365570;32;20131;-56
2024/01/04 16:55:49;;;;;;;10.80;1.98;;;5.90;99.90;;;;;;7368299;32;20103;-57
2024/01/04 16:59:52;;;;;;;13.68;2.80;;;5.80;99.90;;;;;;7367524;32;21200;-57
2024/01/04 17:03:55;;;;;;;13.77;2.47;;;5.80;99.90;;;;;;7365828;32;20190;-56
2024/01/04 17:07:59;;;;;;;12.85;2.42;;;5.80;99.90;;;;;;7362203;32;20183;-56
2024/01/04 17:12:04;;;;;;;12.65;3.08;;;5.60;99.90;;;;;;7361963;32;20186;-57
2024/01/04 17:16:06;;;;;;;16.17;3.20;;;5.60;99.90;;;;;;7366562;32;20204;-56
2024/01/04 17:20:10;;;;;;;14.50;2.75;;;5.60;99.90;;;;;;7361505;32;20250;-55
2024/01/04 17:24:12;;;;;;;15.52;2.70;;;5.60;99.90;;;;;;7365513;32;20198;-56
2024/01/04 17:28:13;;;;;;;12.05;2.40;;;5.50;99.90;;;;;;7369839;32;20107;-57
2024/01/04 17:32:15;;;;;;;11.40;2.37;;;5.50;99.90;;;;;;7361312;32;20126;-57
2024/01/04 17:36:17;;;;;;;8.48;2.58;;;5.50;99.90;;;;;;7364086;32;20160;-57
2024/01/04 17:40:32;;;;;;;10.20;2.40;;;5.40;99.90;;;;;;7364591;32;20179;-57
2024/01/04 17:44:34;;;;;;;12.05;2.25;;;5.40;99.90;;;;;;7365239;32;20207;-57
2024/01/04 17:48:35;;;;;;;8.38;2.03;;;5.30;99.90;;;;;;7363539;32;20205;-57
2024/01/04 17:52:37;;;;;;;11.73;3.10;;;5.30;99.90;;;;;;7360980;32;20107;-57
2024/01/04 17:56:39;;;;;;;16.12;3.40;;;5.20;99.90;;;;;;7361259;32;20202;-56
2024/01/04 18:00:41;;;;;;;8.68;2.70;;;5.10;99.90;;;;;;7358281;32;20280;-57
2024/01/04 18:04:43;;;;;;;7.50;2.50;;;5.10;99.90;;;;;;7367895;32;20111;-56
2024/01/04 18:08:45;;;;;;;14.50;5.97;;;5.10;99.90;;;;;;7365234;32;20216;-56
2024/01/04 18:12:47;;;;;;;8.23;3.20;;;5.00;99.90;;;;;;7365801;32;20116;-55
2024/01/04 18:16:50;;;;;;;12.37;3.80;;;4.90;99.90;;;;;;7371245;32;20233;-56
2024/01/04 18:20:52;;;;;;;8.30;2.75;;;4.90;99.90;;;;;;7371755;32;20159;-57
2024/01/04 18:24:54;;;;;;;9.98;3.37;;;4.90;99.90;;;;;;7366606;32;20107;-57
2024/01/04 18:28:56;;;;;;;13.43;3.85;;;5.00;99.90;;;;;;7368802;32;20206;-57
2024/01/04 18:33:00;;;;;;;7.12;3.50;;;5.00;99.90;;;;;;7362849;32;20117;-56
2024/01/04 18:37:06;;;;;;;8.18;3.30;;;4.90;99.90;;;;;;7367184;32;20201;-57
2024/01/04 18:41:08;;;;;;;10.18;3.42;;;4.80;99.90;;;;;;7360273;32;20198;-56
2024/01/04 18:45:10;;;;;;;7.80;2.95;;;4.80;99.90;;;;;;7354305;32;20739;-58
2024/01/04 18:49:12;;;;;;;7.72;3.47;;;4.80;99.90;;;;;;7361423;32;20156;-56
2024/01/04 18:53:14;;;;;;;10.10;3.37;;;4.70;99.90;;;;;;7362082;32;20398;-57
2024/01/04 18:57:16;;;;;;;14.55;3.53;;;4.80;99.90;;;;;;7364319;32;20539;-56
2024/01/04 19:01:18;;;;;;;8.50;3.25;;;4.80;99.90;;;;;;7357196;32;20190;-56
2024/01/04 19:05:20;;;;;;;10.88;3.60;;;4.80;99.90;;;;;;7354395;32;20232;-54
2024/01/04 19:09:23;;;;;;;12.32;4.10;;;4.80;99.90;;;;;;7358943;32;20303;-57
2024/01/04 19:13:26;;;;;;;12.48;3.33;;;5.00;99.90;;;;;;7366059;32;20107;-56
2024/01/04 19:17:28;;;;;;;12.80;3.35;;;5.10;99.90;;;;;;7359608;32;20124;-57
2024/01/04 19:21:30;;;;;;;15.05;3.12;;;5.10;99.90;;;;;;7366789;32;20173;-57
2024/01/04 19:25:32;;;;;;;9.73;3.60;;;5.10;99.90;;;;;;7363416;32;20155;-56
2024/01/04 19:29:35;;;;;;;13.07;3.30;;;5.10;99.90;;;;;;7361023;32;20234;-57
2024/01/04 19:33:37;;;;;;;18.05;3.55;;;5.20;99.90;;;;;;7362453;32;20142;-56
2024/01/04 19:37:40;;;;;;;9.27;3.53;;;5.30;99.90;;;;;;7355371;32;20135;-56
2024/01/04 19:41:42;;;;;;;11.55;3.28;;;5.40;99.90;;;;;;7360190;32;20214;-56
2024/01/04 19:45:44;;;;;;;10.55;3.10;;;5.50;99.90;;;;;;7360042;32;20099;-56
2024/01/04 19:49:55;;;;;;;8.38;2.85;;;5.50;99.90;;;;;;7361719;32;20193;-57
2024/01/04 19:53:57;;;;;;;13.65;3.33;;;5.60;99.90;;;;;;7360241;32;20187;-56
2024/01/04 19:57:59;;;;;;;10.60;3.33;;;5.60;99.90;;;;;;7359394;32;20123;-56
2024/01/04 20:02:01;;;;;;;9.70;2.92;;;5.70;99.90;;;;;;7358307;32;20174;-57
2024/01/04 20:06:03;;;;;;;11.15;3.10;;;5.70;99.90;;;;;;7358298;32;20376;-56
2024/01/04 20:10:06;;;;;;;14.35;2.80;;;5.80;99.90;;;;;;7360507;32;20126;-57
2024/01/04 20:14:08;;;;;;;12.55;3.60;;;6.00;99.90;;;;;;7359284;32;20196;-56
2024/01/04 20:18:10;;;;;;;11.07;3.03;;;6.00;99.90;;;;;;7365093;32;20178;-58
2024/01/04 20:22:12;;;;;;;14.20;3.83;;;6.20;99.90;;;;;;7369430;32;20102;-56
2024/01/04 20:26:14;;;;;;;19.30;3.00;;;6.30;99.90;;;;;;7363179;32;20103;-57
2024/01/04 20:30:16;;;;;;;15.80;3.37;;;6.30;99.90;;;;;;7359879;32;20486;-57
2024/01/04 20:34:20;;;;;;;15.52;3.42;;;6.40;99.90;;;;;;7357867;32;20577;-56
2024/01/04 20:38:22;;;;;;;12.73;2.75;;;6.50;99.90;;;;;;7363282;32;20245;-56
2024/01/04 20:42:23;;;;;;;16.58;3.15;;;6.60;99.90;;;;;;7363004;32;20134;-54
2024/01/04 20:46:27;;;;;;;12.40;2.70;;;6.60;99.90;;;;;;7357355;32;20116;-54
2024/01/04 20:50:31;;;;;;;9.63;2.50;;;6.80;99.90;;;;;;7362239;32;20193;-55
2024/01/04 20:54:33;;;;;;;13.02;3.20;;;6.70;99.90;;;;;;7356391;32;20672;-59
2024/01/04 20:58:35;;;;;;;15.02;3.00;;;6.70;99.90;;;;;;7367371;32;20581;-58
2024/01/04 21:02:37;;;;;;;16.48;2.87;;;6.70;99.90;;;;;;7363278;32;20217;-59
2024/01/04 21:06:39;;;;;;;12.52;2.20;;;6.80;99.90;;;;;;7366649;32;20099;-59
2024/01/04 21:10:45;;;;;;;17.23;2.95;;;7.00;99.90;;;;;;7365034;32;20421;-59
2024/01/04 21:14:47;;;;;;;8.50;2.72;;;6.90;99.90;;;;;;7361360;32;20206;-58